Latest Coastal Weather Observations for Frederick Reef

IDQ60701

Issued at 11:12 am EST Saturday 23 May 2015 (issued every 10 minutes, with the page automatically refreshed every 10 minutes)

About coastal observations | Map of coastal stations | Coastal observations for QLD | Marine services | Other Formats
Station Details ID: 200701 Name: FREDERICK REEF Lat: -20.94 Lon: 154.40 Height: 4.9 m
Data from the previous 72 hours. | See also: Recent months for locations in Queensland
Date/Time
EST
Temp

°C
Wind Pressure Rain
since 9am
mm
Weather Cloud Vis
km
Sea
Height
m
Swell
Dir
 
Speed
knots
Gust
knots
hPa Trend Height
m
Period
s
Dir
23/11:00am 22.7 SSE 19 22 1018.1 - - - - - - - - -
23/10:30am 22.6 SSE 18 23 1018.4 - - - - - - - - -
23/10:00am 22.4 S 20 23 1018.2 - - - - - - - - -
23/09:30am 22.5 S 18 23 1018.3 - - - - - - - - -
23/09:00am 22.4 S 19 23 1018.1 - - - - - - - - -
23/08:30am 22.5 S 21 26 1017.8 - - - - - - - - -
23/08:00am 22.4 S 20 23 1017.6 - - - - - - - - -
23/07:30am 22.2 S 21 24 1017.2 - - - - - - - - -
23/07:00am 22.0 S 21 25 1016.9 - - - - - - - - -
23/06:30am 22.5 S 22 26 1016.6 - - - - - - - - -
23/06:00am 22.3 S 22 25 1016.3 - - - - - - - - -
23/05:30am 22.3 S 23 27 1015.9 - - - - - - - - -
23/05:00am 22.6 S 21 25 1016.1 - - - - - - - - -
23/04:30am 22.8 S 22 27 1015.8 - - - - - - - - -
23/04:00am 22.6 S 22 25 1015.6 - - - - - - - - -
23/03:30am 22.6 S 22 26 1015.7 - - - - - - - - -
23/03:00am 22.8 S 24 28 1015.5 - - - - - - - - -
23/02:30am 23.0 S 24 27 1015.6 - - - - - - - - -
23/02:00am 23.3 S 24 29 1015.5 - - - - - - - - -
23/01:30am 23.1 S 24 28 1015.7 - - - - - - - - -
23/01:00am 23.6 S 23 26 1016.1 - - - - - - - - -
23/12:30am 23.4 SSW 22 25 1016.2 - - - - - - - - -
23/12:00am 23.3 S 22 25 1016.3 - - - - - - - - -
 
Date/Time
EST
Temp

°C
Wind Pressure Rain
since 9am
mm
Weather Cloud Vis
km
Sea
Height
m
Swell
Dir
 
Speed
knots
Gust
knots
hPa Trend Height
m
Period
s
Dir
22/11:30pm 23.5 S 22 25 1016.4 - - - - - - - - -
22/11:00pm 23.2 S 19 21 1016.8 - - - - - - - - -
22/10:30pm 23.3 S 19 22 1017.0 - - - - - - - - -
22/10:00pm 23.3 S 20 23 1017.2 - - - - - - - - -
22/09:30pm 23.2 S 22 25 1016.9 - - - - - - - - -
22/09:00pm 23.5 S 22 25 1016.7 - - - - - - - - -
22/08:30pm 23.6 S 22 24 1016.7 - - - - - - - - -
22/08:00pm 23.5 S 20 23 1016.6 - - - - - - - - -
22/07:30pm 22.8 S 21 24 1016.5 - - - - - - - - -
22/07:00pm 23.3 SSW 22 23 1016.1 - - - - - - - - -
22/06:30pm 23.7 SSW 21 24 1015.8 - - - - - - - - -
22/06:00pm 23.6 SSW 22 25 1015.3 - - - - - - - - -
22/05:30pm 24.1 SSW 20 21 1015.0 - - - - - - - - -
22/05:00pm 24.7 SW 16 17 1015.0 - - - - - - - - -
22/04:30pm 25.6 W 11 12 1014.8 - - - - - - - - -
22/04:00pm 25.5 W 9 10 1014.6 - - - - - - - - -
22/03:30pm 25.5 W 10 11 1014.6 - - - - - - - - -
22/03:00pm 25.5 WNW 9 9 1014.4 - - - - - - - - -
22/02:30pm 26.0 WNW 8 9 1014.3 - - - - - - - - -
22/02:00pm 25.6 NW 9 10 1014.2 - - - - - - - - -
22/01:30pm 25.9 WNW 8 9 1014.4 - - - - - - - - -
22/01:00pm 26.0 NW 7 8 1014.6 - - - - - - - - -
22/12:30pm 26.0 NW 7 8 1015.0 - - - - - - - - -
22/12:00pm 26.5 N 6 8 1015.5 - - - - - - - - -
22/11:30am 26.4 NNW 6 7 1015.9 - - - - - - - - -
22/11:00am 26.7 NNW 5 6 1016.0 - - - - - - - - -
22/10:30am 26.5 NW 6 8 1016.6 - - - - - - - - -
22/10:00am 26.2 N 6 11 1016.7 - - - - - - - - -
22/09:30am 26.1 N 11 13 1016.8 - - - - - - - - -
22/09:00am 26.0 NNE 14 15 1016.6 - - - - - - - - -
22/08:30am 26.0 NNE 10 11 1016.5 - - - - - - - - -
22/08:00am 26.0 NNE 10 11 1016.2 - - - - - - - - -
22/07:30am 25.7 NNE 13 15 1015.8 - - - - - - - - -
22/07:00am 25.4 NE 12 13 1015.8 - - - - - - - - -
22/06:30am 25.2 NNE 12 14 1015.6 - - - - - - - - -
22/06:00am 25.0 NNE 12 13 1015.5 - - - - - - - - -
22/05:30am 24.9 NNE 11 12 1015.3 - - - - - - - - -
22/05:00am 25.1 NNE 9 10 1015.1 - - - - - - - - -
22/04:30am 25.0 NE 8 9 1015.1 - - - - - - - - -
22/04:00am 25.0 ENE 8 10 1015.0 - - - - - - - - -
22/03:30am 24.9 NE 10 12 1014.9 - - - - - - - - -
22/03:00am 25.2 NE 10 12 1014.9 - - - - - - - - -
22/02:30am 25.0 ENE 10 12 1015.1 - - - - - - - - -
22/02:00am 25.0 ENE 10 11 1015.3 - - - - - - - - -
22/01:30am 25.3 ENE 9 11 1015.6 - - - - - - - - -
22/01:00am 25.2 NE 9 11 1016.1 - - - - - - - - -
22/12:30am 25.4 NE 11 12 1016.4 - - - - - - - - -
22/12:00am 25.4 ENE 9 10 1016.7 - - - - - - - - -
 
Date/Time
EST
Temp

°C
Wind Pressure Rain
since 9am
mm
Weather Cloud Vis
km
Sea
Height
m
Swell
Dir
 
Speed
knots
Gust
knots
hPa Trend Height
m
Period
s
Dir
21/11:30pm 25.1 NE 12 14 1017.1 - - - - - - - - -
21/11:00pm 25.5 NE 9 11 1017.4 - - - - - - - - -
21/10:30pm 25.3 NE 11 13 1017.5 - - - - - - - - -
21/10:00pm 25.1 ENE 11 13 1017.6 - - - - - - - - -
21/09:30pm 25.3 E 10 12 1017.5 - - - - - - - - -
21/09:00pm 25.5 ENE 12 14 1017.5 - - - - - - - - -
21/08:30pm 25.2 ENE 13 15 1017.5 - - - - - - - - -
21/08:00pm 25.6 ENE 12 13 1017.5 - - - - - - - - -
21/07:30pm 25.4 ENE 13 14 1017.3 - - - - - - - - -
21/07:00pm 25.3 ENE 13 15 1017.1 - - - - - - - - -
21/06:30pm 25.5 ENE 11 13 1016.8 - - - - - - - - -
21/06:00pm 25.4 ENE 11 13 1016.6 - - - - - - - - -
21/05:30pm 25.3 ENE 11 12 1016.3 - - - - - - - - -
21/05:00pm 25.2 ENE 11 12 1016.2 - - - - - - - - -
21/04:30pm 25.3 ENE 11 13 1016.0 - - - - - - - - -
21/04:00pm 25.3 ENE 12 13 1015.9 - - - - - - - - -
21/03:30pm 25.5 ENE 13 15 1015.7 - - - - - - - - -
21/03:00pm 25.4 ENE 13 15 1015.6 - - - - - - - - -
21/02:30pm 25.3 NE 14 16 1015.6 - - - - - - - - -
21/02:00pm 25.6 E 13 15 1015.8 - - - - - - - - -
21/01:30pm 25.6 E 12 15 1016.2 - - - - - - - - -
21/01:00pm 25.8 E 12 14 1016.3 - - - - - - - - -
21/12:30pm 25.6 E 12 14 1017.0 - - - - - - - - -
21/12:00pm 25.4 E 13 15 1017.2 - - - - - - - - -
21/11:30am 25.7 E 11 13 1017.8 - - - - - - - - -
21/11:00am 25.5 E 13 14 1017.8 - - - - - - - - -
21/10:30am 25.6 E 13 14 1018.2 - - - - - - - - -
21/10:00am 25.6 E 13 15 1018.3 - - - - - - - - -
21/09:30am 25.3 E 14 16 1018.5 - - - - - - - - -
21/09:00am 25.2 E 10 11 1018.6 - - - - - - - - -
21/08:30am 24.9 ENE 12 15 1018.8 - - - - - - - - -
21/08:00am 25.5 ENE 12 12 1018.5 - - - - - - - - -
21/07:30am 25.0 ENE 11 14 1018.4 - - - - - - - - -
21/07:00am 24.1 NE 13 16 1018.2 - - - - - - - - -
21/06:30am 23.8 NE 10 17 1017.8 - - - - - - - - -
21/06:00am 23.5 ENE 18 20 1017.4 - - - - - - - - -
21/05:51am 24.1 ENE 20 22 1017.3 - - - - - - - - -
21/05:30am 25.2 E 14 16 1017.1 - - - - - - - - -
21/05:00am 25.2 ESE 14 15 1017.0 - - - - - - - - -
21/04:30am 25.1 E 12 14 1017.0 - - - - - - - - -
21/04:00am 25.0 E 13 14 1016.9 - - - - - - - - -
21/03:30am 25.3 E 12 14 1016.9 - - - - - - - - -
21/03:00am 24.9 E 12 14 1017.0 - - - - - - - - -
21/02:30am 25.0 E 12 14 1017.0 - - - - - - - - -
21/02:00am 25.0 E 13 15 1016.9 - - - - - - - - -
21/01:30am 25.1 E 13 15 1017.2 - - - - - - - - -
21/01:00am 25.1 E 14 16 1017.5 - - - - - - - - -
21/12:30am 25.2 E 14 17 1017.7 - - - - - - - - -
21/12:00am 25.2 ENE 15 17 1017.7 - - - - - - - - -
 
Date/Time
EST
Temp

°C
Wind Pressure Rain
since 9am
mm
Weather Cloud Vis
km
Sea
Height
m
Swell
Dir
 
Speed
knots
Gust
knots
hPa Trend Height
m
Period
s
Dir
20/11:30pm 25.3 E 15 17 1018.0 - - - - - - - - -
20/11:00pm 25.2 E 15 17 1018.1 - - - - - - - - -
20/10:30pm 25.3 E 15 17 1018.2 - - - - - - - - -
20/10:00pm 25.4 E 14 17 1018.4 - - - - - - - - -
20/09:30pm 25.4 E 15 17 1018.5 - - - - - - - - -
20/09:00pm 25.5 E 14 16 1018.5 - - - - - - - - -
20/08:30pm 25.6 E 15 17 1018.5 - - - - - - - - -
20/08:00pm 25.7 E 15 17 1018.1 - - - - - - - - -
20/07:30pm 25.5 E 16 19 1017.8 - - - - - - - - -
20/07:00pm 25.2 E 16 18 1017.4 - - - - - - - - -
20/06:30pm 25.3 E 16 18 1017.0 - - - - - - - - -
20/06:00pm 25.3 E 16 18 1016.9 - - - - - - - - -
20/05:30pm 25.4 E 16 19 1016.7 - - - - - - - - -
20/05:00pm 25.6 E 16 18 1016.5 - - - - - - - - -
20/04:30pm 25.4 E 16 18 1016.2 - - - - - - - - -
20/04:00pm 25.3 E 16 18 1015.8 - - - - - - - - -
20/03:30pm 25.7 E 16 18 1015.9 - - - - - - - - -
20/03:00pm 25.5 E 15 17 1015.9 - - - - - - - - -
20/02:30pm 25.5 E 15 18 1015.9 - - - - - - - - -
20/02:00pm 25.6 E 16 18 1015.8 - - - - - - - - -
20/01:30pm 25.7 E 16 18 1016.2 - - - - - - - - -
20/01:00pm 25.2 E 16 17 1016.3 - - - - - - - - -
20/12:30pm 25.4 E 15 18 1016.9 - - - - - - - - -
20/12:00pm 25.4 E 15 16 1017.1 - - - - - - - - -
20/11:30am 25.2 E 15 16 1017.6 - - - - - - - - -

Other Formats:

Comma delimited format used in spreadsheet applications
http://www.bom.gov.au/fwo/IDQ60701/IDQ60701.94393.axf

JavaScript Object Notation format (JSON) in row-major order
http://www.bom.gov.au/fwo/IDQ60701/IDQ60701.94393.json